Airport ID:KCXP
Update Time (UTC):06/02/2023 04:07
Wind Speed (Knots):1
Wind Direction (Magnetic):260
Temperature (°C):-4
Dew Point (°C):-5
Humidity (%):92
Altimeter (inHg):30.19
Density Altitude (Feet):
Visibility:10+
Clouds (Hundreds of feet):SCT045 BKN055 BKN070
Present Weather:
METAR:METAR KCXP 060405Z AUTO 00000KT 10SM FEW047 SCT055 BKN065 M04/M05 A3019 RMK AO2

The data displayed is for advisory purposes only and is not to be used for flight planning or operations.